Time,TemperatureF,DewpointF,PressureIn,WindDirection,WindDirectionDegrees,WindSpeedMPH,WindSpeedGustMPH,Humidity,HourlyPrecipIn,Conditions,Clouds,dailyrainin,SolarRadiationWatts/m^2,SoftwareType,DateUTC
2013-03-10 00:03:00,68.2,56.0,30.17,NE,53,13.0,-999.0,66,-99.99,,,0.00,0,weatherlink.com 1.10,2013-03-10 05:03:00,
2013-03-10 00:18:00,68.4,57.0,30.16,NE,54,12.0,-999.0,68,-99.99,,,0.00,0,weatherlink.com 1.10,2013-03-10 05:18:00,
2013-03-10 00:34:00,68.4,57.0,30.15,East,101,14.0,-999.0,66,-99.99,,,0.00,0,weatherlink.com 1.10,2013-03-10 05:34:00,
2013-03-10 00:48:00,68.6,59.0,30.14,ESE,115,15.0,-999.0,71,-99.99,,,0.00,0,weatherlink.com 1.10,2013-03-10 05:48:00,
2013-03-10 01:04:00,68.4,58.0,30.14,East,80,14.0,-999.0,69,-99.99,,,0.00,0,weatherlink.com 1.10,2013-03-10 06:04:00,
2013-03-10 01:18:00,68.2,57.0,30.14,East,98,13.0,-999.0,68,-99.99,,,0.00,0,weatherlink.com 1.10,2013-03-10 06:18:00,
2013-03-10 01:34:00,68.1,57.0,30.12,East,88,15.0,-999.0,67,-99.99,,,0.00,0,weatherlink.com 1.10,2013-03-10 06:34:00,
2013-03-10 01:49:00,68.0,57.0,30.13,East,93,11.0,-999.0,67,-99.99,,,0.00,0,weatherlink.com 1.10,2013-03-10 06:49:00,
2013-03-10 03:04:00,67.9,56.0,30.11,East,95,10.0,-999.0,67,-99.99,,,0.00,0,weatherlink.com 1.10,2013-03-10 07:04:00,
2013-03-10 03:19:00,68.0,57.0,30.10,ENE,67,18.0,-999.0,67,-99.99,,,0.00,0,weatherlink.com 1.10,2013-03-10 07:19:00,
2013-03-10 03:34:00,68.3,58.0,30.10,East,86,16.0,-999.0,70,-99.99,,,0.00,0,weatherlink.com 1.10,2013-03-10 07:34:00,
2013-03-10 03:49:00,68.2,58.0,30.10,East,99,11.0,-999.0,70,-99.99,,,0.00,0,weatherlink.com 1.10,2013-03-10 07:49:00,
2013-03-10 04:04:00,68.1,57.0,30.10,ENE,76,13.0,-999.0,67,-99.99,,,0.00,0,weatherlink.com 1.10,2013-03-10 08:04:00,
2013-03-10 04:19:00,67.9,56.0,30.10,East,79,12.0,-999.0,67,-99.99,,,0.00,0,weatherlink.com 1.10,2013-03-10 08:19:00,
2013-03-10 04:34:00,67.7,56.0,30.09,East,86,14.0,-999.0,67,-99.99,,,0.00,0,weatherlink.com 1.10,2013-03-10 08:34:00,
2013-03-10 04:49:00,67.8,57.0,30.08,East,101,18.0,-999.0,69,-99.99,,,0.00,0,weatherlink.com 1.10,2013-03-10 08:49:00,
2013-03-10 05:04:00,67.7,56.0,30.08,ENE,76,15.0,-999.0,67,-99.99,,,0.00,0,weatherlink.com 1.10,2013-03-10 09:04:00,
2013-03-10 05:19:00,67.6,56.0,30.11,ENE,59,16.0,-999.0,66,-99.99,,,0.00,0,weatherlink.com 1.10,2013-03-10 09:19:00,
2013-03-10 05:34:00,67.7,56.0,30.11,ENE,65,10.0,-999.0,66,-99.99,,,0.00,0,weatherlink.com 1.10,2013-03-10 09:34:00,
2013-03-10 05:49:00,67.9,57.0,30.11,ESE,108,15.0,-999.0,68,-99.99,,,0.00,0,weatherlink.com 1.10,2013-03-10 09:49:00,
2013-03-10 06:04:00,67.7,57.0,30.11,East,92,14.0,-999.0,68,-99.99,,,0.00,0,weatherlink.com 1.10,2013-03-10 10:04:00,
2013-03-10 06:19:00,67.9,57.0,30.11,East,98,15.0,-999.0,68,-99.99,,,0.00,0,weatherlink.com 1.10,2013-03-10 10:19:00,
2013-03-10 06:34:00,-999.0,-99.9,30.10,North,-999,-999.0,-999.0,-999,-99.99,,,0.00,,weatherlink.com 1.10,2013-03-10 10:34:00,
2013-03-10 06:49:00,-999.0,-99.9,30.10,North,-999,-999.0,-999.0,-999,-99.99,,,0.00,,weatherlink.com 1.10,2013-03-10 10:49:00,
2013-03-10 07:03:00,-999.0,-99.9,30.11,North,-999,-999.0,-999.0,-999,-99.99,,,0.00,,weatherlink.com 1.10,2013-03-10 11:03:00,
2013-03-10 07:19:00,68.2,56.0,30.11,ENE,59,18.0,-999.0,66,-99.99,,,0.00,0,weatherlink.com 1.10,2013-03-10 11:19:00,
2013-03-10 07:34:00,68.0,57.0,30.11,East,101,16.0,-999.0,67,-99.99,,,0.00,0,weatherlink.com 1.10,2013-03-10 11:34:00,
2013-03-10 07:49:00,68.1,56.0,30.12,East,82,13.0,-999.0,66,-99.99,,,0.00,11,weatherlink.com 1.10,2013-03-10 11:49:00,
2013-03-10 08:04:00,68.3,57.0,30.12,ESE,121,13.0,-999.0,68,-99.99,,,0.00,25,weatherlink.com 1.10,2013-03-10 12:04:00,
2013-03-10 08:19:00,68.5,58.0,30.13,ESE,105,18.0,-999.0,70,-99.99,,,0.00,135,weatherlink.com 1.10,2013-03-10 12:19:00,
2013-03-10 08:34:00,68.8,58.0,30.13,East,80,12.0,-999.0,69,-99.99,,,0.00,95,weatherlink.com 1.10,2013-03-10 12:34:00,
2013-03-10 08:48:00,68.9,58.0,30.13,East,88,12.0,-999.0,68,-99.99,,,0.00,123,weatherlink.com 1.10,2013-03-10 12:48:00,
2013-03-10 09:04:00,69.6,59.0,30.14,East,98,14.0,-999.0,69,-99.99,,,0.00,216,weatherlink.com 1.10,2013-03-10 13:04:00,
2013-03-10 09:19:00,70.1,58.0,30.14,East,99,12.0,-999.0,66,-99.99,,,0.00,132,weatherlink.com 1.10,2013-03-10 13:19:00,
2013-03-10 09:34:00,70.5,59.0,30.14,East,96,13.0,-999.0,66,-99.99,,,0.00,243,weatherlink.com 1.10,2013-03-10 13:34:00,
2013-03-10 09:49:00,-999.0,-99.9,30.14,North,-999,-999.0,-999.0,-999,-99.99,,,0.00,,weatherlink.com 1.10,2013-03-10 13:49:00,
2013-03-10 10:04:00,-999.0,-99.9,30.14,North,-999,-999.0,-999.0,-999,-99.99,,,0.00,,weatherlink.com 1.10,2013-03-10 14:04:00,
2013-03-10 10:19:00,-999.0,-99.9,30.15,North,-999,-999.0,-999.0,-999,-99.99,,,0.00,,weatherlink.com 1.10,2013-03-10 14:19:00,
2013-03-10 10:34:00,71.7,58.0,30.15,ESE,103,14.0,-999.0,63,-99.99,,,0.00,294,weatherlink.com 1.10,2013-03-10 14:34:00,
2013-03-10 10:49:00,71.8,60.0,30.15,ESE,109,11.0,-999.0,66,-99.99,,,0.00,183,weatherlink.com 1.10,2013-03-10 14:49:00,
2013-03-10 11:04:00,73.4,59.0,30.15,ESE,103,13.0,-999.0,62,-99.99,,,0.00,756,weatherlink.com 1.10,2013-03-10 15:04:00,
2013-03-10 11:19:00,73.5,59.0,30.15,East,98,11.0,-999.0,60,-99.99,,,0.00,805,weatherlink.com 1.10,2013-03-10 15:19:00,
2013-03-10 11:34:00,73.1,59.0,30.15,ESE,110,13.0,-999.0,61,-99.99,,,0.00,178,weatherlink.com 1.10,2013-03-10 15:34:00,
2013-03-10 11:49:00,73.7,59.0,30.15,ENE,72,15.0,-999.0,61,-99.99,,,0.00,241,weatherlink.com 1.10,2013-03-10 15:49:00,
2013-03-10 12:04:00,74.4,60.0,30.15,East,100,13.0,-999.0,61,-99.99,,,0.00,909,weatherlink.com 1.10,2013-03-10 16:04:00,
2013-03-10 12:19:00,74.9,60.0,30.15,ESE,102,11.0,-999.0,61,-99.99,,,0.00,872,weatherlink.com 1.10,2013-03-10 16:19:00,
2013-03-10 12:34:00,75.3,60.0,30.15,ENE,76,11.0,-999.0,60,-99.99,,,0.00,888,weatherlink.com 1.10,2013-03-10 16:34:00,
2013-03-10 12:49:00,75.1,60.0,30.15,East,92,10.0,-999.0,60,-99.99,,,0.00,900,weatherlink.com 1.10,2013-03-10 16:49:00,
2013-03-10 13:04:00,75.0,60.0,30.13,East,101,15.0,-999.0,60,-99.99,,,0.00,911,weatherlink.com 1.10,2013-03-10 17:04:00,
2013-03-10 13:19:00,75.6,60.0,30.13,ESE,103,11.0,-999.0,59,-99.99,,,0.00,919,weatherlink.com 1.10,2013-03-10 17:19:00,
2013-03-10 13:34:00,76.0,61.0,30.12,East,99,10.0,-999.0,60,-99.99,,,0.00,977,weatherlink.com 1.10,2013-03-10 17:34:00,
2013-03-10 13:49:00,75.7,61.0,30.11,ESE,109,18.0,-999.0,60,-99.99,,,0.00,838,weatherlink.com 1.10,2013-03-10 17:49:00,
2013-03-10 14:04:00,75.3,61.0,30.11,East,84,9.0,-999.0,61,-99.99,,,0.00,918,weatherlink.com 1.10,2013-03-10 18:04:00,
2013-03-10 14:19:00,75.8,62.0,30.11,ESE,102,13.0,-999.0,62,-99.99,,,0.00,900,weatherlink.com 1.10,2013-03-10 18:19:00,
2013-03-10 14:34:00,75.5,61.0,30.10,East,90,10.0,-999.0,62,-99.99,,,0.00,886,weatherlink.com 1.10,2013-03-10 18:34:00,
2013-03-10 14:49:00,75.8,62.0,30.10,ESE,118,9.0,-999.0,62,-99.99,,,0.00,858,weatherlink.com 1.10,2013-03-10 18:49:00,
2013-03-10 15:04:00,75.5,61.0,30.09,ESE,104,11.0,-999.0,62,-99.99,,,0.00,823,weatherlink.com 1.10,2013-03-10 19:04:00,
2013-03-10 15:19:00,75.3,61.0,30.09,East,100,13.0,-999.0,62,-99.99,,,0.00,812,weatherlink.com 1.10,2013-03-10 19:19:00,
2013-03-10 15:34:00,75.1,61.0,30.09,East,101,11.0,-999.0,62,-99.99,,,0.00,262,weatherlink.com 1.10,2013-03-10 19:34:00,
2013-03-10 15:49:00,74.7,61.0,30.09,ESE,107,14.0,-999.0,63,-99.99,,,0.00,814,weatherlink.com 1.10,2013-03-10 19:49:00,
2013-03-10 16:04:00,74.9,61.0,30.09,East,100,13.0,-999.0,63,-99.99,,,0.00,689,weatherlink.com 1.10,2013-03-10 20:04:00,
2013-03-10 16:19:00,74.6,61.0,30.08,ESE,103,13.0,-999.0,63,-99.99,,,0.00,220,weatherlink.com 1.10,2013-03-10 20:19:00,
2013-03-10 16:34:00,74.0,61.0,30.08,East,96,15.0,-999.0,64,-99.99,,,0.00,684,weatherlink.com 1.10,2013-03-10 20:34:00,
2013-03-10 16:49:00,73.0,62.0,30.08,East,99,15.0,-999.0,68,-99.99,,,0.00,274,weatherlink.com 1.10,2013-03-10 20:49:00,
2013-03-10 17:04:00,73.2,62.0,30.08,ESE,105,12.0,-999.0,68,-99.99,,,0.00,587,weatherlink.com 1.10,2013-03-10 21:04:00,
2013-03-10 17:19:00,72.4,61.0,30.09,East,94,12.0,-999.0,68,-99.99,,,0.00,179,weatherlink.com 1.10,2013-03-10 21:19:00,
2013-03-10 17:34:00,71.9,61.0,30.08,ENE,74,11.0,-999.0,69,-99.99,,,0.00,315,weatherlink.com 1.10,2013-03-10 21:34:00,
2013-03-10 17:49:00,71.4,61.0,30.08,East,93,8.0,-999.0,70,-99.99,,,0.00,100,weatherlink.com 1.10,2013-03-10 21:49:00,
2013-03-10 18:04:00,71.7,62.0,30.08,SE,132,11.0,-999.0,71,-99.99,,,0.00,267,weatherlink.com 1.10,2013-03-10 22:04:00,
2013-03-10 18:19:00,71.8,62.0,30.08,East,92,13.0,-999.0,72,-99.99,,,0.00,230,weatherlink.com 1.10,2013-03-10 22:19:00,
2013-03-10 18:34:00,71.3,62.0,30.08,East,84,14.0,-999.0,72,-99.99,,,0.00,58,weatherlink.com 1.10,2013-03-10 22:34:00,
2013-03-10 18:49:00,70.8,62.0,30.08,East,99,16.0,-999.0,74,-99.99,,,0.00,37,weatherlink.com 1.10,2013-03-10 22:49:00,
2013-03-10 19:04:00,70.3,62.0,30.08,NE,51,13.0,-999.0,74,-99.99,,,0.00,28,weatherlink.com 1.10,2013-03-10 23:04:00,
2013-03-10 19:19:00,70.4,62.0,30.09,ENE,67,13.0,-999.0,74,-99.99,,,0.00,5,weatherlink.com 1.10,2013-03-10 23:19:00,
2013-03-10 19:34:00,70.5,62.0,30.09,East,89,16.0,-999.0,75,-99.99,,,0.00,0,weatherlink.com 1.10,2013-03-10 23:34:00,
2013-03-10 19:49:00,70.3,62.0,30.09,ENE,78,14.0,-999.0,75,-99.99,,,0.00,0,weatherlink.com 1.10,2013-03-10 23:49:00,
2013-03-10 20:04:00,70.4,62.0,30.09,East,88,13.0,-999.0,75,-99.99,,,0.00,0,weatherlink.com 1.10,2013-03-11 00:04:00,
2013-03-10 20:19:00,70.2,62.0,30.09,ENE,61,15.0,-999.0,75,-99.99,,,0.00,0,weatherlink.com 1.10,2013-03-11 00:19:00,
2013-03-10 20:34:00,70.2,62.0,30.09,East,82,14.0,-999.0,75,-99.99,,,0.00,0,weatherlink.com 1.10,2013-03-11 00:34:00,
2013-03-10 20:49:00,70.1,62.0,30.09,East,95,15.0,-999.0,76,-99.99,,,0.00,0,weatherlink.com 1.10,2013-03-11 00:49:00,
2013-03-10 21:04:00,70.3,62.0,30.09,East,95,18.0,-999.0,76,-99.99,,,0.00,0,weatherlink.com 1.10,2013-03-11 01:04:00,
2013-03-10 21:19:00,70.2,63.0,30.10,ENE,71,19.0,-999.0,77,-99.99,,,0.00,0,weatherlink.com 1.10,2013-03-11 01:19:00,
2013-03-10 21:34:00,70.2,63.0,30.11,ENE,64,18.0,-999.0,77,-99.99,,,0.00,0,weatherlink.com 1.10,2013-03-11 01:34:00,
2013-03-10 21:49:00,70.2,63.0,30.11,NE,51,16.0,-999.0,77,-99.99,,,0.00,0,weatherlink.com 1.10,2013-03-11 01:49:00,
2013-03-10 22:04:00,70.3,63.0,30.11,ESE,105,18.0,-999.0,77,-99.99,,,0.00,0,weatherlink.com 1.10,2013-03-11 02:04:00,
2013-03-10 22:19:00,70.2,63.0,30.11,East,87,19.0,-999.0,77,-99.99,,,0.00,0,weatherlink.com 1.10,2013-03-11 02:19:00,
2013-03-10 22:34:00,70.3,63.0,30.12,East,99,21.0,-999.0,78,-99.99,,,0.00,0,weatherlink.com 1.10,2013-03-11 02:34:00,
2013-03-10 22:49:00,70.1,63.0,30.12,East,94,20.0,-999.0,78,-99.99,,,0.00,0,weatherlink.com 1.10,2013-03-11 02:49:00,
2013-03-10 23:04:00,70.1,63.0,30.12,ESE,105,15.0,-999.0,78,-99.99,,,0.00,0,weatherlink.com 1.10,2013-03-11 03:04:00,
2013-03-10 23:19:00,70.0,63.0,30.12,East,93,18.0,-999.0,78,-99.99,,,0.00,0,weatherlink.com 1.10,2013-03-11 03:19:00,
2013-03-10 23:34:00,69.9,63.0,30.12,East,85,20.0,-999.0,78,-99.99,,,0.00,0,weatherlink.com 1.10,2013-03-11 03:34:00,
2013-03-10 23:49:00,69.8,62.0,30.11,East,79,16.0,-999.0,77,-99.99,,,0.00,0,weatherlink.com 1.10,2013-03-11 03:49:00,